createdAt,value
2023-02-13T00:04:58.652Z,101110.20
2023-02-13T00:10:03.124Z,101107.62
2023-02-13T00:20:25.919Z,101085.02
2023-02-13T00:25:33.585Z,101090.44
2023-02-13T00:30:40.989Z,101094.71
2023-02-13T00:35:49.083Z,101099.13
2023-02-13T00:40:57.516Z,101093.76
2023-02-13T00:46:05.969Z,101082.48
2023-02-13T00:51:14.306Z,101087.98
2023-02-13T00:56:22.977Z,101079.58
2023-02-13T01:01:30.695Z,101073.05
2023-02-13T01:06:39.202Z,101069.73
2023-02-13T01:11:46.919Z,101058.83
2023-02-13T01:16:56.078Z,101055.63
2023-02-13T01:22:03.492Z,101043.17
2023-02-13T01:27:11.183Z,101042.17
2023-02-13T01:32:19.181Z,101036.52
2023-02-13T01:37:27.023Z,101035.06
2023-02-13T01:42:36.160Z,101032.21
2023-02-13T01:47:46.843Z,101033.51
2023-02-13T01:53:01.410Z,101030.34
2023-02-13T01:58:13.846Z,101020.91
2023-02-13T02:03:26.548Z,101001.63
2023-02-13T02:08:36.605Z,101000.63
2023-02-13T02:13:44.169Z,101000.95
2023-02-13T02:18:52.355Z,100992.96
2023-02-13T02:24:26.822Z,100986.92
2023-02-13T02:30:03.822Z,100985.56
2023-02-13T02:35:25.214Z,100989.23
2023-02-13T02:40:39.540Z,100996.80
2023-02-13T02:45:55.097Z,101002.57
2023-02-13T02:51:09.816Z,101002.96
2023-02-13T02:56:24.838Z,101001.83
2023-02-13T03:01:52.729Z,101003.46
2023-02-13T03:07:06.276Z,100997.38
2023-02-13T03:12:36.292Z,100985.95
2023-02-13T03:18:02.228Z,100981.63
2023-02-13T03:23:18.977Z,100983.58
2023-02-13T03:28:53.124Z,100982.34
2023-02-13T03:34:06.202Z,100990.27
2023-02-13T03:39:21.197Z,100992.73
2023-02-13T03:44:34.902Z,100992.70
2023-02-13T03:50:04.545Z,100993.58
2023-02-13T03:55:33.313Z,100992.41
2023-02-13T04:00:46.447Z,101001.98
2023-02-13T04:05:57.935Z,101002.18
2023-02-13T04:11:15.109Z,101001.95
2023-02-13T04:16:29.552Z,100999.55
2023-02-13T04:21:40.560Z,100996.55
2023-02-13T04:26:50.294Z,100987.98
2023-02-13T04:31:59.796Z,100985.34
2023-02-13T04:37:07.765Z,100984.89
2023-02-13T04:42:15.311Z,100983.86
2023-02-13T04:47:23.756Z,100983.85
2023-02-13T04:52:32.859Z,100988.13
2023-02-13T04:57:40.460Z,100988.30
2023-02-13T05:02:48.172Z,100990.77
2023-02-13T05:07:56.001Z,100994.02
2023-02-13T05:13:04.210Z,100996.05
2023-02-13T05:18:11.748Z,100991.04
2023-02-13T05:23:25.537Z,100992.76
2023-02-13T05:28:50.411Z,100992.53
2023-02-13T05:33:59.037Z,100992.11
2023-02-13T05:39:07.183Z,100993.14
2023-02-13T05:44:17.099Z,100993.15
2023-02-13T05:49:24.952Z,100996.96
2023-02-13T05:54:32.931Z,100996.92
2023-02-13T05:59:40.385Z,101012.31
2023-02-13T06:04:47.724Z,101010.88
2023-02-13T06:09:55.731Z,101008.29
2023-02-13T06:15:03.522Z,101007.45
2023-02-13T06:20:13.447Z,101001.72
2023-02-13T06:25:21.610Z,101009.42
2023-02-13T06:30:29.382Z,101014.23
2023-02-13T06:35:36.832Z,101020.13
2023-02-13T06:40:44.864Z,101026.20
2023-02-13T06:45:54.517Z,101032.73
2023-02-13T06:51:03.066Z,101037.17
2023-02-13T06:56:11.693Z,101032.67
2023-02-13T07:01:18.959Z,101030.03
2023-02-13T07:06:27.174Z,101032.42
2023-02-13T07:11:34.565Z,101031.51
2023-02-13T07:16:42.200Z,101037.71
2023-02-13T07:21:49.796Z,101039.58
2023-02-13T07:26:57.205Z,101039.27
2023-02-13T07:32:09.380Z,101034.27
2023-02-13T07:37:16.702Z,101023.52
2023-02-13T07:42:24.301Z,101016.45
2023-02-13T07:47:32.433Z,101018.89
2023-02-13T07:52:40.068Z,101022.55
2023-02-13T07:57:47.539Z,101019.17
2023-02-13T08:02:54.529Z,101014.38
2023-02-13T08:08:02.074Z,101011.91
2023-02-13T08:13:10.847Z,101008.82
2023-02-13T08:18:20.155Z,101010.44
2023-02-13T08:23:27.984Z,101010.18
2023-02-13T08:28:35.428Z,101011.34
2023-02-13T08:33:42.984Z,101008.59
2023-02-13T08:38:50.806Z,101018.28
2023-02-13T08:44:00.069Z,101016.70
2023-02-13T08:49:09.254Z,101012.42
2023-02-13T08:54:16.972Z,101009.36
2023-02-13T08:59:24.787Z,101010.40
2023-02-13T09:04:32.091Z,101006.98
2023-02-13T09:09:39.498Z,100998.61
2023-02-13T09:14:47.014Z,101000.70
2023-02-13T09:19:55.221Z,101001.10
2023-02-13T09:25:04.563Z,101007.08
2023-02-13T09:30:23.022Z,101000.96
2023-02-13T09:35:30.611Z,101006.95
2023-02-13T09:40:44.738Z,100999.92
2023-02-13T09:45:55.644Z,101007.35
2023-02-13T09:51:06.479Z,101005.39
2023-02-13T09:56:22.002Z,101013.27
2023-02-13T10:01:35.546Z,101011.95
2023-02-13T10:06:51.088Z,101005.41
2023-02-13T10:12:34.963Z,101001.50
2023-02-13T10:17:45.875Z,100994.72
2023-02-13T10:22:58.082Z,100988.41
2023-02-13T10:28:13.719Z,100980.71
2023-02-13T10:33:24.966Z,100974.74
2023-02-13T10:38:35.094Z,100960.20
2023-02-13T10:43:55.964Z,100946.88
2023-02-13T10:49:21.654Z,100948.96
2023-02-13T10:54:49.687Z,100945.50
2023-02-13T11:00:08.251Z,100944.69
2023-02-13T11:05:23.500Z,100938.14
2023-02-13T11:10:31.476Z,100941.48
2023-02-13T11:15:40.366Z,100939.82
2023-02-13T11:20:50.034Z,100934.16
2023-02-13T11:26:01.854Z,100937.13
2023-02-13T11:31:21.136Z,100934.23
2023-02-13T11:36:31.337Z,100941.47
2023-02-13T11:41:45.412Z,100941.58
2023-02-13T11:46:55.040Z,100944.17
2023-02-13T11:52:04.224Z,100941.63
2023-02-13T11:57:23.565Z,100931.60
2023-02-13T12:02:31.907Z,100924.79
2023-02-13T12:07:39.658Z,100922.75
2023-02-13T12:12:53.519Z,100914.46
2023-02-13T12:19:31.337Z,100903.02
2023-02-13T12:24:58.043Z,100897.98
2023-02-13T12:30:20.141Z,100898.85
2023-02-13T12:35:44.608Z,100894.02
2023-02-13T12:41:13.814Z,100880.48
2023-02-13T12:46:30.592Z,100885.91
2023-02-13T12:51:49.707Z,100881.15
2023-02-13T12:57:26.144Z,100878.14
2023-02-13T13:03:17.369Z,100881.19
2023-02-13T13:08:45.922Z,100882.36
2023-02-13T13:14:03.599Z,100889.21
2023-02-13T13:19:24.403Z,100880.04
2023-02-13T13:24:53.690Z,100880.63
2023-02-13T13:30:04.165Z,100875.79
2023-02-13T13:35:16.484Z,100865.54
2023-02-13T13:40:35.775Z,100870.36
2023-02-13T13:45:48.561Z,100873.66
2023-02-13T13:50:56.971Z,100871.54
2023-02-13T13:56:10.527Z,100871.82
2023-02-13T14:01:27.166Z,100862.35
2023-02-13T14:07:23.972Z,100853.23
2023-02-13T14:13:05.761Z,100850.05
2023-02-13T14:18:54.927Z,100850.75
2023-02-13T14:24:13.953Z,100837.52
2023-02-13T14:29:34.070Z,100827.46
2023-02-13T14:34:43.578Z,100827.33
2023-02-13T14:40:32.944Z,100818.22
2023-02-13T14:45:51.996Z,100805.42
2023-02-13T14:51:00.915Z,100791.56
2023-02-13T14:56:13.751Z,100783.46
2023-02-13T15:01:30.644Z,100790.25
2023-02-13T15:06:41.998Z,100788.98
2023-02-13T15:11:49.319Z,100776.44
2023-02-13T15:19:51.698Z,100766.70
2023-02-13T15:25:00.347Z,100771.38
2023-02-13T15:30:22.703Z,100778.21
2023-02-13T15:35:32.900Z,100785.79
2023-02-13T15:40:45.568Z,100790.04
2023-02-13T15:45:53.035Z,100793.96
2023-02-13T15:51:01.838Z,100796.83
2023-02-13T15:56:15.265Z,100802.05
2023-02-13T16:01:23.207Z,100802.33
2023-02-13T16:06:31.431Z,100793.52
2023-02-13T16:11:41.176Z,100794.42
2023-02-13T16:16:53.654Z,100806.70
2023-02-13T16:22:04.512Z,100813.48
2023-02-13T16:27:19.339Z,100816.48
2023-02-13T16:32:31.809Z,100821.17
2023-02-13T16:37:51.178Z,100827.80
2023-02-13T16:43:36.205Z,100826.50
2023-02-13T16:48:44.234Z,100843.93
2023-02-13T16:54:00.686Z,100839.10
2023-02-13T16:59:26.014Z,100824.27
2023-02-13T17:04:33.687Z,100801.29
2023-02-13T17:09:41.085Z,100796.77
2023-02-13T17:14:49.743Z,100800.04
2023-02-13T17:19:57.371Z,100790.63
2023-02-13T17:25:07.772Z,100790.94
2023-02-13T17:30:19.889Z,100790.92
2023-02-13T17:35:27.249Z,100795.39
2023-02-13T17:40:35.163Z,100800.53
2023-02-13T17:45:42.788Z,100803.45
2023-02-13T17:50:50.713Z,100805.46
2023-02-13T17:55:59.048Z,100800.31
2023-02-13T18:01:06.722Z,100815.64
2023-02-13T18:06:16.086Z,100818.34
2023-02-13T18:11:23.746Z,100830.83
2023-02-13T18:16:32.351Z,100822.58
2023-02-13T18:21:39.830Z,100812.75
2023-02-13T18:26:47.806Z,100832.94
2023-02-13T18:31:57.180Z,100839.04
2023-02-13T18:37:05.033Z,100843.84
2023-02-13T18:42:13.680Z,100843.00
2023-02-13T18:47:21.664Z,100848.17
2023-02-13T18:52:29.298Z,100851.79
2023-02-13T18:57:35.125Z,100862.73
2023-02-13T19:02:42.547Z,100867.64
2023-02-13T19:07:50.271Z,100870.93
2023-02-13T19:12:57.615Z,100895.17
2023-02-13T19:21:07.221Z,100905.20
2023-02-13T19:26:15.196Z,100904.73
2023-02-13T19:31:21.272Z,100899.55
2023-02-13T19:36:28.046Z,100889.89
2023-02-13T19:41:33.079Z,100885.19
2023-02-13T19:46:37.890Z,100889.26
2023-02-13T19:51:45.916Z,100905.34
2023-02-13T19:56:50.034Z,100905.38
2023-02-13T20:01:54.188Z,100912.10
2023-02-13T20:06:58.826Z,100911.41
2023-02-13T20:12:02.840Z,100921.30
2023-02-13T20:17:06.793Z,100929.42
2023-02-13T20:22:12.837Z,100936.67
2023-02-13T20:27:16.869Z,100934.69
2023-02-13T20:32:21.139Z,100932.48
2023-02-13T20:37:25.403Z,100933.67
2023-02-13T20:42:31.853Z,100941.35
2023-02-13T20:47:35.799Z,100936.88
2023-02-13T20:52:39.933Z,100936.95
2023-02-13T20:57:44.115Z,100929.16
2023-02-13T21:02:48.431Z,100917.25
2023-02-13T21:07:53.207Z,100914.73
2023-02-13T21:12:57.828Z,100916.52
2023-02-13T21:18:03.058Z,100907.53
2023-02-13T21:23:07.388Z,100907.89
2023-02-13T21:28:11.647Z,100900.33
2023-02-13T21:33:15.624Z,100901.48
2023-02-13T21:38:20.142Z,100899.67
2023-02-13T21:43:24.856Z,100895.54
2023-02-13T21:48:29.284Z,100898.34
2023-02-13T21:53:33.645Z,100899.86
2023-02-13T21:58:39.516Z,100898.88
2023-02-13T22:03:44.396Z,100895.63
2023-02-13T22:08:49.260Z,100897.48
2023-02-13T22:13:56.656Z,100898.26
2023-02-13T22:19:01.380Z,100895.23
2023-02-13T22:24:06.467Z,100899.63
2023-02-13T22:29:12.912Z,100899.52
2023-02-13T22:34:17.036Z,100898.85
2023-02-13T22:39:21.201Z,100892.16
2023-02-13T22:44:25.431Z,100891.74
2023-02-13T22:49:29.432Z,100882.57
2023-02-13T22:54:33.696Z,100884.89
2023-02-13T22:59:40.071Z,100880.36
2023-02-13T23:04:44.095Z,100886.88
2023-02-13T23:09:48.540Z,100886.40
2023-02-13T23:14:53.621Z,100886.92
2023-02-13T23:19:57.367Z,100886.55
2023-02-13T23:25:01.850Z,100887.35
2023-02-13T23:30:08.154Z,100880.25
2023-02-13T23:35:12.185Z,100879.31
2023-02-13T23:40:17.999Z,100874.38
2023-02-13T23:45:22.744Z,100865.03
2023-02-13T23:50:28.629Z,100861.17
2023-02-13T23:55:33.162Z,100859.47
